createdAt,value
2022-08-19T00:02:14.140Z,100232.34
2022-08-19T00:04:41.314Z,100222.69
2022-08-19T00:07:08.543Z,100240.03
2022-08-19T00:09:35.799Z,100243.72
2022-08-19T00:12:05.119Z,100236.63
2022-08-19T00:14:33.215Z,100243.00
2022-08-19T00:17:01.043Z,100236.88
2022-08-19T00:19:28.274Z,100232.50
2022-08-19T00:21:57.362Z,100228.19
2022-08-19T00:24:25.007Z,100238.03
2022-08-19T00:26:52.820Z,100231.06
2022-08-19T00:29:21.912Z,100231.19
2022-08-19T00:31:50.689Z,100234.03
2022-08-19T00:34:17.858Z,100237.69
2022-08-19T00:36:45.674Z,100240.41
2022-08-19T00:39:14.029Z,100237.56
2022-08-19T00:41:42.448Z,100239.44
2022-08-19T00:44:17.106Z,100234.03
2022-08-19T00:46:55.472Z,100236.84
2022-08-19T00:49:52.389Z,100236.00
2022-08-19T00:52:24.820Z,100234.44
2022-08-19T00:54:53.968Z,100235.56
2022-08-19T00:57:27.813Z,100234.72
2022-08-19T01:00:02.569Z,100236.56
2022-08-19T01:02:31.805Z,100226.91
2022-08-19T01:05:00.333Z,100234.13
2022-08-19T01:07:27.728Z,100230.56
2022-08-19T01:09:55.058Z,100232.44
2022-08-19T01:12:22.722Z,100240.53
2022-08-19T01:14:51.196Z,100236.81
2022-08-19T01:17:20.167Z,100239.53
2022-08-19T01:19:48.072Z,100244.06
2022-08-19T01:22:33.634Z,100237.25
2022-08-19T01:25:02.406Z,100234.41
2022-08-19T01:27:44.052Z,100234.66
2022-08-19T01:30:20.578Z,100229.56
2022-08-19T01:32:47.572Z,100225.97
2022-08-19T01:35:18.023Z,100230.41
2022-08-19T01:37:52.991Z,100219.03
2022-08-19T01:40:22.585Z,100222.72
2022-08-19T01:42:58.502Z,100231.09
2022-08-19T01:45:27.891Z,100234.06
2022-08-19T01:48:02.011Z,100241.16
2022-08-19T01:50:30.597Z,100234.19
2022-08-19T01:53:06.227Z,100237.03
2022-08-19T01:55:41.075Z,100229.22
2022-08-19T01:58:16.099Z,100230.78
2022-08-19T02:00:44.409Z,100236.31
2022-08-19T02:03:12.543Z,100235.59
2022-08-19T02:05:43.009Z,100233.88
2022-08-19T02:08:11.646Z,100237.56
2022-08-19T02:10:44.517Z,100238.72
2022-08-19T02:13:14.582Z,100238.72
2022-08-19T02:15:42.707Z,100236.97
2022-08-19T02:18:10.057Z,100239.81
2022-08-19T02:20:39.643Z,100240.94
2022-08-19T02:23:14.006Z,100246.63
2022-08-19T02:25:48.953Z,100249.44
2022-08-19T02:28:18.735Z,100254.00
2022-08-19T02:30:47.725Z,100250.59
2022-08-19T02:33:15.013Z,100247.13
2022-08-19T02:35:44.143Z,100256.09
2022-08-19T02:38:26.795Z,100249.72
2022-08-19T02:40:57.510Z,100264.94
2022-08-19T02:43:25.654Z,100258.81
2022-08-19T02:45:53.079Z,100262.47
2022-08-19T02:48:22.049Z,100252.53
2022-08-19T02:50:56.379Z,100252.53
2022-08-19T02:53:27.867Z,100251.69
2022-08-19T02:55:55.810Z,100253.66
2022-08-19T02:58:25.195Z,100250.97
2022-08-19T03:00:55.297Z,100257.47
2022-08-19T03:03:22.886Z,100261.13
2022-08-19T03:05:56.962Z,100271.78
2022-08-19T03:08:26.216Z,100271.91
2022-08-19T03:10:55.011Z,100277.19
2022-08-19T03:13:22.556Z,100281.75
2022-08-19T03:15:50.204Z,100292.44
2022-08-19T03:18:18.330Z,100298.56
2022-08-19T03:20:48.247Z,100301.09
2022-08-19T03:23:17.422Z,100298.16
2022-08-19T03:25:47.099Z,100293.59
2022-08-19T03:28:26.042Z,100294.06
2022-08-19T03:31:05.319Z,100291.09
2022-08-19T03:33:53.084Z,100293.13
2022-08-19T03:36:26.330Z,100295.56
2022-08-19T03:38:59.700Z,100296.72
2022-08-19T03:41:44.670Z,100293.66
2022-08-19T03:44:19.650Z,100299.94
2022-08-19T03:46:50.247Z,100298.00
2022-08-19T03:49:18.775Z,100300.75
2022-08-19T03:51:48.905Z,100293.66
2022-08-19T03:54:18.565Z,100299.97
2022-08-19T03:56:48.175Z,100294.03
2022-08-19T03:59:23.346Z,100284.81
2022-08-19T04:01:54.941Z,100282.25
2022-08-19T04:04:22.684Z,100296.06
2022-08-19T04:06:50.317Z,100291.53
2022-08-19T04:09:17.688Z,100287.81
2022-08-19T04:11:51.079Z,100287.56
2022-08-19T04:14:23.328Z,100296.34
2022-08-19T04:16:58.171Z,100296.88
2022-08-19T04:19:27.021Z,100299.03
2022-08-19T04:21:55.379Z,100292.00
2022-08-19T04:24:23.821Z,100294.56
2022-08-19T04:26:54.225Z,100303.22
2022-08-19T04:29:28.778Z,100308.47
2022-08-19T04:31:57.811Z,100309.75
2022-08-19T04:34:29.398Z,100317.88
2022-08-19T04:36:59.696Z,100305.94
2022-08-19T04:39:49.649Z,100318.59
2022-08-19T04:42:37.241Z,100317.34
2022-08-19T04:45:09.443Z,100317.75
2022-08-19T04:47:47.891Z,100321.06
2022-08-19T04:50:27.931Z,100313.09
2022-08-19T04:52:56.783Z,100315.66
2022-08-19T04:55:26.760Z,100309.84
2022-08-19T04:57:55.690Z,100308.94
2022-08-19T05:00:24.643Z,100314.38
2022-08-19T05:02:53.750Z,100305.16
2022-08-19T05:05:20.929Z,100310.09
2022-08-19T05:07:48.365Z,100316.38
2022-08-19T05:10:18.055Z,100311.50
2022-08-19T05:12:45.138Z,100308.59
2022-08-19T05:15:15.680Z,100309.22
2022-08-19T05:18:03.751Z,100305.53
2022-08-19T05:20:50.102Z,100309.59
2022-08-19T05:23:21.880Z,100307.09
2022-08-19T05:25:54.526Z,100308.28
2022-08-19T05:28:26.016Z,100311.66
2022-08-19T05:30:56.595Z,100312.28
2022-08-19T05:33:27.687Z,100316.00
2022-08-19T05:35:57.104Z,100314.75
2022-08-19T05:38:24.188Z,100324.88
2022-08-19T05:40:51.187Z,100315.47
2022-08-19T05:43:20.754Z,100314.56
2022-08-19T05:46:03.319Z,100321.03
2022-08-19T05:48:32.784Z,100316.06
2022-08-19T05:51:09.441Z,100312.22
2022-08-19T05:53:36.759Z,100313.19
2022-08-19T05:56:10.504Z,100313.47
2022-08-19T05:58:42.015Z,100320.53
2022-08-19T06:01:19.368Z,100308.28
2022-08-19T06:03:50.062Z,100311.63
2022-08-19T06:06:18.373Z,100314.94
2022-08-19T06:08:53.173Z,100308.81
2022-08-19T06:11:59.336Z,100302.34
2022-08-19T06:14:31.697Z,100305.69
2022-08-19T06:17:07.029Z,100303.13
2022-08-19T06:19:34.832Z,100314.19
2022-08-19T06:22:16.475Z,100314.19
2022-08-19T06:24:48.711Z,100313.16
2022-08-19T06:27:17.952Z,100315.56
2022-08-19T06:29:46.055Z,100303.53
2022-08-19T06:32:17.494Z,100304.91
2022-08-19T06:34:48.658Z,100298.66
2022-08-19T06:37:16.134Z,100288.47
2022-08-19T06:39:45.116Z,100297.72
2022-08-19T06:42:14.434Z,100297.41
2022-08-19T06:44:43.799Z,100306.72
2022-08-19T06:47:23.487Z,100304.03
2022-08-19T06:50:05.818Z,100305.25
2022-08-19T06:52:47.860Z,100305.75
2022-08-19T06:55:16.868Z,100305.81
2022-08-19T06:57:49.354Z,100306.06
2022-08-19T07:00:17.095Z,100323.75
2022-08-19T07:02:50.601Z,100311.69
2022-08-19T07:05:28.138Z,100299.00
2022-08-19T07:07:57.592Z,100306.56
2022-08-19T07:10:27.421Z,100316.47
2022-08-19T07:12:55.921Z,100316.03
2022-08-19T07:15:24.899Z,100309.25
2022-08-19T07:17:53.266Z,100311.16
2022-08-19T07:20:22.174Z,100315.59
2022-08-19T07:22:59.602Z,100324.47
2022-08-19T07:25:32.505Z,100326.75
2022-08-19T07:28:01.481Z,100323.34
2022-08-19T07:30:28.999Z,100321.16
2022-08-19T07:32:58.628Z,100330.69
2022-08-19T07:35:26.030Z,100331.84
2022-08-19T07:37:54.365Z,100333.06
2022-08-19T07:40:29.155Z,100321.91
2022-08-19T07:42:56.823Z,100318.34
2022-08-19T07:45:24.675Z,100319.22
2022-08-19T07:47:52.170Z,100307.84
2022-08-19T07:50:24.404Z,100313.44
2022-08-19T07:52:55.769Z,100303.75
2022-08-19T07:55:41.390Z,100299.50
2022-08-19T07:58:17.582Z,100300.50
2022-08-19T08:00:48.531Z,100300.31
2022-08-19T08:03:20.393Z,100306.59
2022-08-19T08:06:06.690Z,100310.63
2022-08-19T08:08:52.864Z,100299.38
2022-08-19T08:11:24.008Z,100309.94
2022-08-19T08:14:00.313Z,100315.06
2022-08-19T08:19:40.821Z,100314.59
2022-08-19T08:22:33.257Z,100327.53
2022-08-19T08:25:11.323Z,100332.97
2022-08-19T08:27:43.401Z,100331.53
2022-08-19T08:33:19.255Z,100323.97
2022-08-19T08:36:09.250Z,100324.00
2022-08-19T08:38:41.255Z,100324.91
2022-08-19T08:41:48.714Z,100329.94
2022-08-19T08:44:22.029Z,100320.25
2022-08-19T08:47:01.877Z,100317.25
2022-08-19T08:49:43.626Z,100312.22
2022-08-19T08:52:24.886Z,100308.78
2022-08-19T08:55:10.114Z,100311.13
2022-08-19T08:58:06.725Z,100313.22
2022-08-19T09:00:43.804Z,100309.00
2022-08-19T09:03:20.348Z,100305.84
2022-08-19T09:06:21.143Z,100309.03
2022-08-19T09:09:11.854Z,100313.03
2022-08-19T09:11:46.614Z,100326.13
2022-08-19T09:14:49.846Z,100322.84
2022-08-19T09:17:19.004Z,100319.41
2022-08-19T09:20:09.919Z,100317.59
2022-08-19T09:22:45.083Z,100303.31
2022-08-19T09:25:16.720Z,100313.97
2022-08-19T09:27:44.369Z,100307.53
2022-08-19T09:30:15.168Z,100315.41
2022-08-19T09:33:05.913Z,100313.25
2022-08-19T09:35:33.505Z,100304.41
2022-08-19T09:38:17.653Z,100300.97
2022-08-19T09:40:45.926Z,100293.72
2022-08-19T09:43:15.020Z,100305.38
2022-08-19T09:46:04.019Z,100290.88
2022-08-19T09:48:34.388Z,100303.13
2022-08-19T09:51:17.707Z,100301.34
2022-08-19T09:53:46.269Z,100302.34
2022-08-19T09:56:14.636Z,100302.22
2022-08-19T09:58:41.759Z,100298.03
2022-08-19T10:01:12.324Z,100305.13
2022-08-19T10:04:00.092Z,100304.34
2022-08-19T10:06:38.221Z,100302.78
2022-08-19T10:09:16.301Z,100302.28
2022-08-19T10:11:55.356Z,100309.41
2022-08-19T10:14:24.717Z,100308.81
2022-08-19T10:16:53.118Z,100310.19
2022-08-19T10:19:25.891Z,100307.81
2022-08-19T10:22:00.197Z,100307.78
2022-08-19T10:24:29.165Z,100316.66
2022-08-19T10:26:59.771Z,100316.91
2022-08-19T10:29:33.546Z,100305.75
2022-08-19T10:32:03.551Z,100301.84
2022-08-19T10:34:31.796Z,100307.88
2022-08-19T10:37:03.048Z,100301.16
2022-08-19T10:39:43.536Z,100312.66
2022-08-19T10:42:26.159Z,100317.09
2022-08-19T10:44:53.843Z,100317.53
2022-08-19T10:47:26.049Z,100312.53
2022-08-19T10:50:17.414Z,100316.84
2022-08-19T10:52:49.560Z,100320.22
2022-08-19T10:55:40.338Z,100311.31
2022-08-19T10:58:16.000Z,100329.50
2022-08-19T11:00:47.128Z,100326.44
2022-08-19T11:03:14.557Z,100310.91
2022-08-19T11:05:42.408Z,100307.72
2022-08-19T11:08:23.402Z,100308.78
2022-08-19T11:11:00.331Z,100311.97
2022-08-19T11:13:30.025Z,100310.88
2022-08-19T11:16:07.410Z,100309.94
2022-08-19T11:18:44.617Z,100302.59
2022-08-19T11:21:20.415Z,100310.78
2022-08-19T11:23:50.293Z,100303.47
2022-08-19T11:26:18.609Z,100299.66
2022-08-19T11:28:46.022Z,100291.88
2022-08-19T11:31:19.669Z,100291.81
2022-08-19T11:33:47.996Z,100291.75
2022-08-19T11:36:16.369Z,100296.34
2022-08-19T11:38:45.183Z,100290.47
2022-08-19T11:41:12.454Z,100282.97
2022-08-19T11:43:41.029Z,100284.34
2022-08-19T11:46:10.976Z,100278.13
2022-08-19T11:48:39.131Z,100287.66
2022-08-19T11:51:09.803Z,100284.56
2022-08-19T11:53:37.829Z,100281.56
2022-08-19T11:56:05.688Z,100277.00
2022-08-19T11:58:33.490Z,100275.00
2022-08-19T12:01:00.752Z,100267.66
2022-08-19T12:03:29.073Z,100275.53
2022-08-19T12:05:56.525Z,100271.34
2022-08-19T12:08:23.773Z,100267.66
2022-08-19T12:10:50.889Z,100259.00
2022-08-19T12:13:19.940Z,100259.31
2022-08-19T12:15:48.941Z,100252.19
2022-08-19T12:18:16.218Z,100248.50
2022-08-19T12:20:44.245Z,100251.69
2022-08-19T12:23:11.910Z,100245.13
2022-08-19T12:25:51.013Z,100258.63
2022-08-19T12:28:21.312Z,100243.00
2022-08-19T12:30:52.124Z,100244.75
2022-08-19T12:33:25.131Z,100241.03
2022-08-19T12:35:53.106Z,100240.88
2022-08-19T12:38:20.762Z,100243.72
2022-08-19T12:40:48.360Z,100239.78
2022-08-19T12:43:16.998Z,100239.63
2022-08-19T12:45:44.798Z,100235.59
2022-08-19T12:48:33.325Z,100229.00
2022-08-19T12:51:11.177Z,100239.91
2022-08-19T12:53:39.039Z,100240.31
2022-08-19T12:56:23.368Z,100230.19
2022-08-19T12:58:53.078Z,100232.94
2022-08-19T13:01:24.216Z,100237.31
2022-08-19T13:03:54.918Z,100234.34
2022-08-19T13:06:23.965Z,100231.72
2022-08-19T13:11:36.361Z,100229.63
2022-08-19T13:14:04.841Z,100231.31
2022-08-19T13:16:32.532Z,100223.31
2022-08-19T13:18:59.868Z,100224.25
2022-08-19T13:21:31.916Z,100211.34
2022-08-19T13:24:05.122Z,100215.13
2022-08-19T13:26:35.220Z,100212.84
2022-08-19T13:29:20.795Z,100215.69
2022-08-19T13:32:17.666Z,100207.28
2022-08-19T13:34:48.426Z,100203.38
2022-08-19T13:37:15.827Z,100204.22
2022-08-19T13:39:42.910Z,100212.66
2022-08-19T13:42:11.578Z,100208.25
2022-08-19T13:44:38.909Z,100214.09
2022-08-19T13:47:07.904Z,100211.56
2022-08-19T13:49:37.349Z,100207.03
2022-08-19T13:52:06.567Z,100198.91
2022-08-19T13:57:16.637Z,100206.06
2022-08-19T13:59:43.665Z,100194.69
2022-08-19T14:02:11.814Z,100200.63
2022-08-19T14:04:39.137Z,100200.41
2022-08-19T14:07:06.164Z,100198.53
2022-08-19T14:09:33.182Z,100193.41
2022-08-19T14:12:00.548Z,100200.38
2022-08-19T14:14:27.605Z,100193.03
2022-08-19T14:16:54.601Z,100192.63
2022-08-19T14:19:22.436Z,100189.47
2022-08-19T14:21:51.452Z,100181.03
2022-08-19T14:24:18.443Z,100185.66
2022-08-19T14:26:45.808Z,100195.16
2022-08-19T14:29:14.002Z,100182.06
2022-08-19T14:31:43.687Z,100186.50
2022-08-19T14:34:11.561Z,100190.50
2022-08-19T14:36:40.295Z,100186.28
2022-08-19T14:39:34.269Z,100191.09
2022-08-19T14:42:11.411Z,100187.31
2022-08-19T14:44:39.074Z,100181.19
2022-08-19T14:47:08.775Z,100182.03
2022-08-19T14:49:42.342Z,100192.16
2022-08-19T14:52:13.501Z,100188.59
2022-08-19T14:54:46.368Z,100187.19
2022-08-19T14:57:17.902Z,100187.38
2022-08-19T14:59:45.167Z,100194.31
2022-08-19T15:02:34.297Z,100187.34
2022-08-19T15:05:02.681Z,100185.06
2022-08-19T15:07:33.285Z,100186.50
2022-08-19T15:10:07.872Z,100191.34
2022-08-19T15:12:40.512Z,100193.44
2022-08-19T15:15:14.299Z,100188.09
2022-08-19T15:17:46.561Z,100189.78
2022-08-19T15:20:19.552Z,100193.00
2022-08-19T15:22:49.262Z,100186.00
2022-08-19T15:25:19.742Z,100192.28
2022-08-19T15:27:47.432Z,100187.59
2022-08-19T15:30:22.141Z,100188.88
2022-08-19T15:32:53.606Z,100186.91
2022-08-19T15:35:23.460Z,100192.59
2022-08-19T15:37:52.376Z,100186.09
2022-08-19T15:40:21.125Z,100181.16
2022-08-19T15:42:50.067Z,100186.63
2022-08-19T15:45:23.601Z,100185.13
2022-08-19T15:48:08.195Z,100181.94
2022-08-19T15:50:36.000Z,100189.72
2022-08-19T15:53:09.480Z,100185.47
2022-08-19T15:55:42.726Z,100186.94
2022-08-19T15:58:33.679Z,100188.56
2022-08-19T16:01:26.907Z,100191.06
2022-08-19T16:04:15.924Z,100193.94
2022-08-19T16:06:52.902Z,100192.66
2022-08-19T16:09:27.631Z,100202.50
2022-08-19T16:12:06.031Z,100196.28
2022-08-19T16:14:35.596Z,100202.16
2022-08-19T16:17:15.471Z,100215.06
2022-08-19T16:19:52.603Z,100209.72
2022-08-19T16:22:19.877Z,100213.06
2022-08-19T16:24:47.460Z,100225.25
2022-08-19T16:27:16.195Z,100226.84
2022-08-19T16:29:43.270Z,100230.19
2022-08-19T16:32:12.155Z,100229.06
2022-08-19T16:34:43.837Z,100232.75
2022-08-19T16:37:10.905Z,100233.44
2022-08-19T16:39:43.666Z,100231.97
2022-08-19T16:42:12.175Z,100240.69
2022-08-19T16:44:47.519Z,100244.22
2022-08-19T16:47:18.088Z,100246.56
2022-08-19T16:49:54.540Z,100252.84
2022-08-19T16:52:27.109Z,100254.81
2022-08-19T16:54:55.718Z,100256.97
2022-08-19T16:57:27.054Z,100254.16
2022-08-19T16:59:55.200Z,100243.03
2022-08-19T17:02:30.465Z,100249.09
2022-08-19T17:05:01.199Z,100251.34
2022-08-19T17:07:33.572Z,100257.25
2022-08-19T17:10:02.610Z,100265.16
2022-08-19T17:12:31.958Z,100268.66
2022-08-19T17:15:04.093Z,100275.00
2022-08-19T17:17:33.532Z,100279.97
2022-08-19T17:20:02.880Z,100275.59
2022-08-19T17:22:36.881Z,100283.66
2022-08-19T17:25:07.721Z,100285.03
2022-08-19T17:27:34.832Z,100279.38
2022-08-19T17:30:06.877Z,100286.88
2022-08-19T17:32:37.226Z,100287.91
2022-08-19T17:35:07.359Z,100292.34
2022-08-19T17:37:38.733Z,100290.78
2022-08-19T17:40:09.217Z,100287.53
2022-08-19T17:42:37.223Z,100296.56
2022-08-19T17:45:05.589Z,100304.84
2022-08-19T17:47:36.135Z,100312.31
2022-08-19T17:50:13.246Z,100310.56
2022-08-19T17:52:52.497Z,100315.63
2022-08-19T17:55:20.983Z,100315.59
2022-08-19T17:57:52.971Z,100327.47
2022-08-19T18:00:22.000Z,100324.88
2022-08-19T18:02:54.262Z,100318.97
2022-08-19T18:05:29.653Z,100320.81
2022-08-19T18:07:58.583Z,100324.16
2022-08-19T18:10:31.447Z,100327.50
2022-08-19T18:13:02.442Z,100330.84
2022-08-19T18:15:45.541Z,100329.47
2022-08-19T18:18:14.914Z,100328.78
2022-08-19T18:20:44.292Z,100334.22
2022-08-19T18:23:43.780Z,100336.25
2022-08-19T18:25:58.779Z,100329.75
2022-08-19T18:28:27.051Z,100334.66
2022-08-19T18:30:54.107Z,100333.81
2022-08-19T18:33:47.030Z,100341.06
2022-08-19T18:36:14.272Z,100336.81
2022-08-19T18:39:02.868Z,100337.84
2022-08-19T18:41:54.480Z,100336.13
2022-08-19T18:44:41.377Z,100339.31
2022-08-19T18:47:36.122Z,100340.31
2022-08-19T18:50:11.793Z,100340.75
2022-08-19T18:52:40.107Z,100337.97
2022-08-19T18:55:09.149Z,100338.44
2022-08-19T18:57:36.525Z,100336.19
2022-08-19T19:00:05.586Z,100338.06
2022-08-19T19:02:39.107Z,100338.75
2022-08-19T19:05:10.424Z,100339.47
2022-08-19T19:07:42.914Z,100332.84
2022-08-19T19:10:11.348Z,100337.59
2022-08-19T19:12:43.621Z,100340.44
2022-08-19T19:15:12.070Z,100335.50
2022-08-19T19:17:42.840Z,100325.13
2022-08-19T19:20:10.084Z,100326.28
2022-08-19T19:22:40.218Z,100328.13
2022-08-19T19:25:15.260Z,100325.03
2022-08-19T19:27:46.124Z,100325.19
2022-08-19T19:30:16.064Z,100327.06
2022-08-19T19:32:43.117Z,100325.34
2022-08-19T19:37:57.315Z,100321.78
2022-08-19T19:40:24.479Z,100332.78
2022-08-19T19:42:52.120Z,100328.53
2022-08-19T19:45:25.178Z,100333.25
2022-08-19T19:47:57.688Z,100334.56
2022-08-19T19:50:31.709Z,100333.19
2022-08-19T19:53:21.064Z,100339.91
2022-08-19T19:55:50.986Z,100333.94
2022-08-19T19:58:21.251Z,100331.69
2022-08-19T20:01:01.576Z,100331.38
2022-08-19T20:03:36.426Z,100335.09
2022-08-19T20:06:03.674Z,100333.53
2022-08-19T20:08:55.349Z,100327.13
2022-08-19T20:11:41.467Z,100335.25
2022-08-19T20:14:16.332Z,100328.44
2022-08-19T20:16:48.191Z,100327.88
2022-08-19T20:19:21.257Z,100332.84
2022-08-19T20:22:14.062Z,100328.91
2022-08-19T20:24:45.390Z,100330.38
2022-08-19T20:27:12.951Z,100326.91
2022-08-19T20:29:44.428Z,100331.31
2022-08-19T20:32:15.764Z,100321.31
2022-08-19T20:34:44.799Z,100329.44
2022-08-19T20:37:14.993Z,100329.97
2022-08-19T20:39:42.557Z,100330.47
2022-08-19T20:42:13.408Z,100329.53
2022-08-19T20:44:44.740Z,100325.41
2022-08-19T20:47:12.460Z,100323.16
2022-08-19T20:49:42.712Z,100325.09
2022-08-19T20:52:10.637Z,100332.41
2022-08-19T20:54:41.775Z,100335.25
2022-08-19T20:57:08.881Z,100326.97
2022-08-19T20:59:40.785Z,100321.53
2022-08-19T21:02:14.860Z,100321.22
2022-08-19T21:04:46.285Z,100321.91
2022-08-19T21:07:17.757Z,100329.91
2022-08-19T21:09:44.827Z,100338.91
2022-08-19T21:12:13.112Z,100336.06
2022-08-19T21:14:47.228Z,100331.94
2022-08-19T21:17:17.306Z,100334.25
2022-08-19T21:19:44.733Z,100340.44
2022-08-19T21:22:11.772Z,100334.81
2022-08-19T21:24:43.233Z,100343.88
2022-08-19T21:27:12.603Z,100339.53
2022-08-19T21:29:43.335Z,100341.31
2022-08-19T21:32:14.067Z,100339.38
2022-08-19T21:34:46.666Z,100329.56
2022-08-19T21:37:25.397Z,100337.44
2022-08-19T21:39:54.877Z,100326.50
2022-08-19T21:42:25.749Z,100327.25
2022-08-19T21:44:53.406Z,100320.88
2022-08-19T21:47:23.191Z,100315.06
2022-08-19T21:49:50.964Z,100318.38
2022-08-19T21:52:35.009Z,100312.69
2022-08-19T21:55:07.811Z,100312.97
2022-08-19T21:57:41.320Z,100318.72
2022-08-19T22:00:25.543Z,100316.44
2022-08-19T22:02:53.129Z,100311.00
2022-08-19T22:05:23.299Z,100312.59
2022-08-19T22:07:51.791Z,100305.88
2022-08-19T22:10:32.857Z,100305.41
2022-08-19T22:12:59.970Z,100308.53
2022-08-19T22:15:32.166Z,100313.66
2022-08-19T22:18:03.586Z,100317.19
2022-08-19T22:20:32.808Z,100311.78
2022-08-19T22:23:06.683Z,100331.06
2022-08-19T22:25:45.606Z,100333.97
2022-08-19T22:28:14.605Z,100325.03
2022-08-19T22:30:51.209Z,100330.47
2022-08-19T22:33:22.456Z,100328.47
2022-08-19T22:35:54.503Z,100336.91
2022-08-19T22:38:23.022Z,100342.59
2022-08-19T22:40:54.055Z,100349.72
2022-08-19T22:43:26.910Z,100348.00
2022-08-19T22:45:58.745Z,100351.44
2022-08-19T22:48:28.374Z,100347.16
2022-08-19T22:51:19.448Z,100349.03
2022-08-19T22:53:47.791Z,100344.03
2022-08-19T22:56:19.666Z,100346.59
2022-08-19T22:58:54.423Z,100351.31
2022-08-19T23:01:30.368Z,100343.50
2022-08-19T23:04:03.854Z,100356.16
2022-08-19T23:06:38.145Z,100365.44
2022-08-19T23:09:11.230Z,100351.50
2022-08-19T23:11:46.510Z,100359.88
2022-08-19T23:14:17.111Z,100362.03
2022-08-19T23:16:50.436Z,100354.59
2022-08-19T23:19:19.388Z,100361.44
2022-08-19T23:21:49.616Z,100363.03
2022-08-19T23:24:17.060Z,100362.84
2022-08-19T23:27:04.545Z,100364.31
2022-08-19T23:29:54.426Z,100364.59
2022-08-19T23:32:23.651Z,100367.56
2022-08-19T23:34:55.399Z,100366.16
2022-08-19T23:37:22.618Z,100372.84
2022-08-19T23:39:50.966Z,100372.16
2022-08-19T23:42:18.496Z,100380.56
2022-08-19T23:44:52.312Z,100379.16
2022-08-19T23:47:22.200Z,100390.13
2022-08-19T23:49:49.834Z,100383.13
2022-08-19T23:52:16.811Z,100385.13
2022-08-19T23:54:44.126Z,100377.72
2022-08-19T23:57:13.697Z,100371.44
2022-08-19T23:59:45.674Z,100378.31
